West Marche, Arkansas
Current Conditions -  °F | °C
As of 9:58 PM on Wednesday 28 Jan 2015 (Local Time) from KLRF Reporting Station
Scattered Clouds Scattered Clouds  
Wind Chill: 56°   Ceiling: Unl
Heat Index: 56°   Visibility: 10mi
Dew Point: 42°   Wind: 9mph
Humidity: 59%   Direction: 160°SSE
Pressure: 30.01"   Gusts: NA
Location:  34.868°N, 92.3217°W
Report Text: KLRF 290358Z AUTO 16008KT 10SM SCT150 14/06 A3001 RMK AO2 SLP165 T01360056
Loading
Personal Weather Stations






























Interactive Weather Map New forecast layout! Learn more

10-Day Weather Forecast

Advertisements
Track Severe Weather on mobile